createdAt,value
2022-08-05T00:00:02.950Z,1004.39
2022-08-05T00:01:27.393Z,1004.28
2022-08-05T00:02:07.846Z,1004.25
2022-08-05T00:03:03.410Z,1004.19
2022-08-05T00:04:03.437Z,1004.13
2022-08-05T00:05:05.698Z,1004.07
2022-08-05T00:06:21.185Z,1004.05
2022-08-05T00:07:26.963Z,1004.03
2022-08-05T00:08:03.793Z,1004.03
2022-08-05T00:09:03.821Z,1004.02
2022-08-05T00:10:03.661Z,1004.01
2022-08-05T00:11:03.716Z,1004.02
2022-08-05T00:12:03.368Z,1004.01
2022-08-05T00:13:03.394Z,1004.06
2022-08-05T00:14:12.835Z,1004.07
2022-08-05T00:15:54.404Z,1004.09
2022-08-05T00:16:03.782Z,1004.12
2022-08-05T00:17:03.542Z,1004.14
2022-08-05T00:18:04.086Z,1004.16
2022-08-05T00:19:04.437Z,1004.17
2022-08-05T00:20:04.115Z,1004.14
2022-08-05T00:21:04.620Z,1004.12
2022-08-05T00:22:04.511Z,1004.10
2022-08-05T00:23:12.800Z,1004.08
2022-08-05T00:24:10.028Z,1004.01
2022-08-05T00:25:03.997Z,1004.04
2022-08-05T00:26:03.629Z,1004.01
2022-08-05T00:27:04.534Z,1004.03
2022-08-05T00:28:03.185Z,1004.05
2022-08-05T00:29:03.549Z,1004.08
2022-08-05T00:30:03.625Z,1004.11
2022-08-05T00:31:04.403Z,1004.06
2022-08-05T00:32:13.295Z,1004.04
2022-08-05T00:33:03.753Z,1004.00
2022-08-05T00:34:55.859Z,1003.98
2022-08-05T00:35:07.627Z,1003.97
2022-08-05T00:36:15.920Z,1003.96
2022-08-05T00:37:10.449Z,1003.99
2022-08-05T00:38:03.281Z,1003.96
2022-08-05T00:39:03.516Z,1004.00
2022-08-05T00:40:03.494Z,1003.94
2022-08-05T00:41:03.463Z,1003.89
2022-08-05T00:42:03.578Z,1003.87
2022-08-05T00:43:07.399Z,1003.83
2022-08-05T00:44:03.832Z,1003.82
2022-08-05T00:45:04.063Z,1003.79
2022-08-05T00:46:03.633Z,1003.71
2022-08-05T00:47:04.237Z,1003.67
2022-08-05T00:48:05.163Z,1003.65
2022-08-05T00:49:03.345Z,1003.67
2022-08-05T00:50:03.679Z,1003.64
2022-08-05T00:51:08.966Z,1003.67
2022-08-05T00:52:03.671Z,1003.68
2022-08-05T00:53:09.494Z,1003.70
2022-08-05T00:54:03.570Z,1003.72
2022-08-05T00:55:04.151Z,1003.70
2022-08-05T00:56:04.032Z,1003.67
2022-08-05T00:57:04.177Z,1003.68
2022-08-05T00:58:04.737Z,1003.67
2022-08-05T00:59:06.973Z,1003.66
2022-08-05T01:00:04.442Z,1003.71
2022-08-05T01:01:08.606Z,1003.71
2022-08-05T01:02:02.305Z,1003.74
2022-08-05T01:03:02.272Z,1003.74
2022-08-05T01:04:01.864Z,1003.71
2022-08-05T01:05:01.863Z,1003.75
2022-08-05T01:06:02.582Z,1003.75
2022-08-05T01:06:19.515Z,1003.74
2022-08-05T01:07:15.591Z,1003.74
2022-08-05T01:08:40.002Z,1003.75
2022-08-05T01:09:17.379Z,1003.70
2022-08-05T01:10:16.040Z,1003.74
2022-08-05T01:11:22.473Z,1003.77
2022-08-05T01:11:22.646Z,1003.77
2022-08-05T01:12:05.334Z,1003.80
2022-08-05T01:13:19.266Z,1003.81
2022-08-05T01:14:08.578Z,1003.83
2022-08-05T01:15:05.906Z,1003.87
2022-08-05T01:16:05.722Z,1003.85
2022-08-05T01:17:05.354Z,1003.85
2022-08-05T01:18:05.097Z,1003.85
2022-08-05T01:19:05.556Z,1003.81
2022-08-05T01:20:05.741Z,1003.82
2022-08-05T01:21:05.573Z,1003.81
2022-08-05T01:22:06.089Z,1003.85
2022-08-05T01:23:15.252Z,1003.85
2022-08-05T01:24:14.200Z,1003.89
2022-08-05T01:25:06.316Z,1003.93
2022-08-05T01:26:05.817Z,1003.95
2022-08-05T01:27:17.857Z,1004.02
2022-08-05T01:28:06.208Z,1004.05
2022-08-05T01:29:06.519Z,1004.01
2022-08-05T01:30:18.719Z,1004.03
2022-08-05T01:31:06.356Z,1004.03
2022-08-05T01:32:05.439Z,1004.05
2022-08-05T01:33:06.102Z,1004.06
2022-08-05T01:34:05.803Z,1004.07
2022-08-05T01:35:10.394Z,1004.11
2022-08-05T01:36:05.476Z,1004.11
2022-08-05T01:37:05.983Z,1004.10
2022-08-05T01:38:06.034Z,1004.08
2022-08-05T01:39:05.619Z,1004.05
2022-08-05T01:40:06.065Z,1004.02
2022-08-05T01:41:05.656Z,1004.00
2022-08-05T01:42:06.195Z,1004.00
2022-08-05T01:43:06.024Z,1003.97
2022-08-05T01:44:05.803Z,1003.95
2022-08-05T01:45:08.222Z,1003.90
2022-08-05T01:46:07.447Z,1003.86
2022-08-05T01:47:06.781Z,1003.81
2022-08-05T01:48:10.230Z,1003.73
2022-08-05T01:49:22.642Z,1003.71
2022-08-05T01:50:05.863Z,1003.70
2022-08-05T01:51:08.685Z,1003.71
2022-08-05T01:52:12.373Z,1003.70
2022-08-05T01:53:06.002Z,1003.68
2022-08-05T01:54:05.442Z,1003.69
2022-08-05T01:55:05.670Z,1003.69
2022-08-05T01:56:06.086Z,1003.68
2022-08-05T01:58:09.567Z,1003.64
2022-08-05T01:58:10.638Z,1003.65
2022-08-05T01:59:06.352Z,1003.60
2022-08-05T02:00:06.239Z,1003.57
2022-08-05T02:01:06.697Z,1003.52
2022-08-05T02:02:06.221Z,1003.46
2022-08-05T02:03:06.007Z,1003.42
2022-08-05T02:04:06.318Z,1003.43
2022-08-05T02:05:06.053Z,1003.49
2022-08-05T02:06:24.218Z,1003.53
2022-08-05T02:06:37.298Z,1003.54
2022-08-05T02:06:50.905Z,1003.56
2022-08-05T02:08:00.420Z,1003.64
2022-08-05T02:08:58.015Z,1003.70
2022-08-05T02:09:51.138Z,1003.77
2022-08-05T02:10:51.048Z,1003.86
2022-08-05T02:11:33.234Z,1003.89
2022-08-05T02:12:21.875Z,1003.88
2022-08-05T02:13:21.963Z,1003.87
2022-08-05T02:14:21.794Z,1003.85
2022-08-05T02:15:21.562Z,1003.80
2022-08-05T02:16:22.073Z,1003.80
2022-08-05T02:16:27.624Z,1003.80
2022-08-05T02:17:03.624Z,1003.78
2022-08-05T02:18:32.588Z,1003.85
2022-08-05T02:19:07.260Z,1003.81
2022-08-05T02:20:03.773Z,1003.85
2022-08-05T02:21:04.429Z,1003.86
2022-08-05T02:22:03.128Z,1003.88
2022-08-05T02:23:03.048Z,1003.92
2022-08-05T02:24:03.586Z,1003.98
2022-08-05T02:25:03.114Z,1004.02
2022-08-05T02:26:03.266Z,1004.14
2022-08-05T02:27:09.877Z,1004.25
2022-08-05T02:28:08.880Z,1004.35
2022-08-05T02:29:04.123Z,1004.43
2022-08-05T02:30:04.193Z,1004.58
2022-08-05T02:31:04.308Z,1004.75
2022-08-05T02:32:04.772Z,1004.88
2022-08-05T02:33:03.427Z,1004.99
2022-08-05T02:34:03.580Z,1005.09
2022-08-05T02:35:13.826Z,1005.14
2022-08-05T02:36:03.546Z,1005.23
2022-08-05T02:37:04.401Z,1005.32
2022-08-05T02:38:04.164Z,1005.38
2022-08-05T02:39:04.049Z,1005.47
2022-08-05T02:40:03.970Z,1005.51
2022-08-05T02:41:06.401Z,1005.59
2022-08-05T02:42:03.430Z,1005.69
2022-08-05T02:43:03.308Z,1005.72
2022-08-05T02:44:11.286Z,1005.65
2022-08-05T02:45:03.339Z,1005.74
2022-08-05T02:46:03.349Z,1005.71
2022-08-05T02:47:04.159Z,1005.71
2022-08-05T02:48:11.898Z,1005.71
2022-08-05T02:49:03.948Z,1005.62
2022-08-05T02:50:03.684Z,1005.56
2022-08-05T02:51:04.075Z,1005.55
2022-08-05T02:52:04.841Z,1005.57
2022-08-05T02:53:03.666Z,1005.57
2022-08-05T02:54:04.284Z,1005.51
2022-08-05T02:55:05.120Z,1005.51
2022-08-05T02:56:04.023Z,1005.49
2022-08-05T02:57:03.854Z,1005.49
2022-08-05T02:58:11.988Z,1005.54
2022-08-05T02:59:03.758Z,1005.51
2022-08-05T03:00:03.606Z,1005.52
2022-08-05T03:01:03.626Z,1005.56
2022-08-05T03:02:04.149Z,1005.56
2022-08-05T03:03:07.738Z,1005.50
2022-08-05T03:04:08.874Z,1005.54
2022-08-05T03:05:04.053Z,1005.54
2022-08-05T03:06:55.040Z,1005.58
2022-08-05T03:06:55.961Z,1005.56
2022-08-05T03:06:57.161Z,1005.56
2022-08-05T03:08:04.565Z,1005.60
2022-08-05T03:08:42.798Z,1005.63
2022-08-05T03:09:43.912Z,1005.69
2022-08-05T03:10:40.821Z,1005.73
2022-08-05T03:11:54.769Z,1005.72
2022-08-05T03:12:30.719Z,1005.78
2022-08-05T03:13:51.605Z,1005.80
2022-08-05T03:14:30.317Z,1005.76
2022-08-05T03:15:30.218Z,1005.71
2022-08-05T03:16:31.559Z,1005.64
2022-08-05T03:17:08.952Z,1005.64
2022-08-05T03:18:04.620Z,1005.69
2022-08-05T03:19:17.123Z,1005.70
2022-08-05T03:20:04.789Z,1005.75
2022-08-05T03:21:05.083Z,1005.75
2022-08-05T03:22:05.057Z,1005.76
2022-08-05T03:23:03.733Z,1005.72
2022-08-05T03:24:03.793Z,1005.72
2022-08-05T03:25:31.862Z,1005.71
2022-08-05T03:26:31.844Z,1005.71
2022-08-05T03:27:06.776Z,1005.71
2022-08-05T03:28:04.787Z,1005.72
2022-08-05T03:29:04.783Z,1005.70
2022-08-05T03:30:08.362Z,1005.76
2022-08-05T03:31:04.790Z,1005.79
2022-08-05T03:32:04.919Z,1005.78
2022-08-05T03:33:05.755Z,1005.75
2022-08-05T03:34:04.994Z,1005.71
2022-08-05T03:35:05.543Z,1005.72
2022-08-05T03:36:06.680Z,1005.76
2022-08-05T03:37:05.254Z,1005.76
2022-08-05T03:38:04.692Z,1005.77
2022-08-05T03:39:05.135Z,1005.76
2022-08-05T03:40:05.077Z,1005.79
2022-08-05T03:41:10.782Z,1005.83
2022-08-05T03:42:04.498Z,1005.86
2022-08-05T03:43:59.029Z,1005.84
2022-08-05T03:44:11.599Z,1005.86
2022-08-05T03:45:22.642Z,1005.92
2022-08-05T03:46:04.169Z,1005.93
2022-08-05T03:47:04.175Z,1005.94
2022-08-05T03:48:04.706Z,1005.98
2022-08-05T03:49:04.215Z,1005.97
2022-08-05T03:50:04.498Z,1005.99
2022-08-05T03:52:35.266Z,1005.98
2022-08-05T03:52:38.008Z,1005.97
2022-08-05T03:55:07.137Z,1006.01
2022-08-05T03:55:53.609Z,1005.98
2022-08-05T03:56:00.690Z,1005.99
2022-08-05T03:56:12.214Z,1005.97
2022-08-05T03:57:16.481Z,1005.93
2022-08-05T03:58:04.030Z,1005.94
2022-08-05T03:59:04.366Z,1005.92
2022-08-05T04:00:04.444Z,1005.94
2022-08-05T04:01:04.689Z,1005.92
2022-08-05T04:02:05.214Z,1005.92
2022-08-05T04:03:04.998Z,1005.91
2022-08-05T04:04:09.691Z,1005.88
2022-08-05T04:05:05.229Z,1005.89
2022-08-05T04:06:05.289Z,1005.84
2022-08-05T04:06:35.426Z,1005.82
2022-08-05T04:06:47.741Z,1005.80
2022-08-05T04:07:57.629Z,1005.78
2022-08-05T04:08:40.689Z,1005.76
2022-08-05T04:09:53.809Z,1005.80
2022-08-05T04:10:41.102Z,1005.79
2022-08-05T04:11:47.722Z,1005.74
2022-08-05T04:12:30.085Z,1005.69
2022-08-05T04:13:51.142Z,1005.62
2022-08-05T04:14:31.148Z,1005.56
2022-08-05T04:15:33.188Z,1005.51
2022-08-05T04:16:32.476Z,1005.42
2022-08-05T04:16:35.738Z,1005.42
2022-08-05T04:17:05.013Z,1005.43
2022-08-05T04:18:07.280Z,1005.33
2022-08-05T04:19:10.537Z,1005.31
2022-08-05T04:20:05.290Z,1005.25
2022-08-05T04:21:04.428Z,1005.21
2022-08-05T04:22:09.258Z,1005.18
2022-08-05T04:23:04.462Z,1005.21
2022-08-05T04:24:06.250Z,1005.13
2022-08-05T04:25:04.679Z,1005.14
2022-08-05T04:26:04.632Z,1005.09
2022-08-05T04:27:04.631Z,1005.06
2022-08-05T04:28:11.244Z,1005.05
2022-08-05T04:29:07.083Z,1005.01
2022-08-05T04:30:04.461Z,1004.97
2022-08-05T04:31:08.417Z,1004.91
2022-08-05T04:32:05.351Z,1004.95
2022-08-05T04:33:05.394Z,1004.88
2022-08-05T04:34:32.024Z,1004.88
2022-08-05T04:35:05.018Z,1004.82
2022-08-05T04:36:16.246Z,1004.73
2022-08-05T04:37:04.849Z,1004.62
2022-08-05T04:38:06.410Z,1004.48
2022-08-05T04:39:04.507Z,1004.24
2022-08-05T04:40:04.620Z,1004.03
2022-08-05T04:41:04.941Z,1003.99
2022-08-05T04:42:04.945Z,1003.95
2022-08-05T04:43:05.135Z,1004.03
2022-08-05T04:44:08.838Z,1004.08
2022-08-05T04:45:04.429Z,1004.13
2022-08-05T04:46:05.254Z,1004.15
2022-08-05T04:47:09.505Z,1004.12
2022-08-05T04:48:04.227Z,1004.05
2022-08-05T04:49:04.749Z,1003.97
2022-08-05T04:50:11.296Z,1003.90
2022-08-05T04:51:11.499Z,1003.90
2022-08-05T04:52:04.758Z,1004.02
2022-08-05T04:53:05.086Z,1004.11
2022-08-05T04:54:04.881Z,1004.17
2022-08-05T04:55:15.034Z,1004.19
2022-08-05T04:56:33.214Z,1004.16
2022-08-05T04:57:05.388Z,1004.14
2022-08-05T04:58:05.146Z,1004.16
2022-08-05T04:59:22.301Z,1004.13
2022-08-05T05:00:05.528Z,1004.09
2022-08-05T05:01:05.294Z,1004.05
2022-08-05T05:02:35.755Z,1004.07
2022-08-05T05:03:05.320Z,1004.00
2022-08-05T05:04:05.359Z,1004.03
2022-08-05T05:05:16.857Z,1004.05
2022-08-05T05:06:38.890Z,1004.09
2022-08-05T05:06:44.655Z,1004.14
2022-08-05T05:07:35.566Z,1004.16
2022-08-05T05:08:33.082Z,1004.17
2022-08-05T05:09:32.655Z,1004.19
2022-08-05T05:10:33.776Z,1004.19
2022-08-05T05:11:41.985Z,1004.21
2022-08-05T05:11:53.972Z,1004.19
2022-08-05T05:12:37.302Z,1004.23
2022-08-05T05:13:43.304Z,1004.24
2022-08-05T05:14:37.516Z,1004.30
2022-08-05T05:15:56.451Z,1004.38
2022-08-05T05:16:37.855Z,1004.51
2022-08-05T05:16:41.847Z,1004.54
2022-08-05T05:17:04.019Z,1004.59
2022-08-05T05:18:03.922Z,1004.72
2022-08-05T05:19:18.699Z,1004.77
2022-08-05T05:20:04.346Z,1004.82
2022-08-05T05:21:05.527Z,1004.87
2022-08-05T05:22:23.991Z,1004.92
2022-08-05T05:23:08.459Z,1004.97
2022-08-05T05:24:09.166Z,1005.04
2022-08-05T05:25:16.692Z,1005.09
2022-08-05T05:26:04.648Z,1005.17
2022-08-05T05:27:04.458Z,1005.16
2022-08-05T05:28:04.918Z,1005.20
2022-08-05T05:29:14.293Z,1005.25
2022-08-05T05:30:05.284Z,1005.27
2022-08-05T05:31:05.769Z,1005.33
2022-08-05T05:32:03.833Z,1005.36
2022-08-05T05:33:13.903Z,1005.42
2022-08-05T05:34:04.017Z,1005.39
2022-08-05T05:35:03.995Z,1005.44
2022-08-05T05:36:04.117Z,1005.48
2022-08-05T05:37:04.420Z,1005.50
2022-08-05T05:38:05.664Z,1005.51
2022-08-05T05:39:04.552Z,1005.50
2022-08-05T05:40:04.599Z,1005.53
2022-08-05T05:41:04.456Z,1005.47
2022-08-05T05:42:04.007Z,1005.46
2022-08-05T05:43:04.239Z,1005.37
2022-08-05T05:44:04.457Z,1005.35
2022-08-05T05:45:04.313Z,1005.36
2022-08-05T05:46:05.246Z,1005.36
2022-08-05T05:47:21.382Z,1005.37
2022-08-05T05:48:06.831Z,1005.35
2022-08-05T05:49:06.488Z,1005.36
2022-08-05T05:50:04.544Z,1005.33
2022-08-05T05:51:14.772Z,1005.35
2022-08-05T05:52:07.235Z,1005.38
2022-08-05T05:53:21.202Z,1005.46
2022-08-05T05:54:05.065Z,1005.52
2022-08-05T05:55:07.398Z,1005.57
2022-08-05T05:56:04.808Z,1005.57
2022-08-05T05:57:04.165Z,1005.58
2022-08-05T05:58:04.489Z,1005.59
2022-08-05T05:59:05.361Z,1005.60
2022-08-05T06:00:03.999Z,1005.61
2022-08-05T06:01:12.790Z,1005.58
2022-08-05T06:02:04.541Z,1005.56
2022-08-05T06:03:40.624Z,1005.57
2022-08-05T06:04:04.762Z,1005.59
2022-08-05T06:05:10.415Z,1005.60
2022-08-05T06:06:03.917Z,1005.63
2022-08-05T06:06:47.817Z,1005.65
2022-08-05T06:07:41.529Z,1005.62
2022-08-05T06:08:32.778Z,1005.63
2022-08-05T06:09:59.831Z,1005.54
2022-08-05T06:10:29.420Z,1005.52
2022-08-05T06:11:28.804Z,1005.48
2022-08-05T06:11:43.748Z,1005.48
2022-08-05T06:12:42.482Z,1005.46
2022-08-05T06:13:50.561Z,1005.52
2022-08-05T06:14:43.028Z,1005.56
2022-08-05T06:16:30.169Z,1005.50
2022-08-05T06:16:42.639Z,1005.47
2022-08-05T06:16:46.635Z,1005.49
2022-08-05T06:17:22.282Z,1005.45
2022-08-05T06:18:02.769Z,1005.44
2022-08-05T06:19:05.706Z,1005.44
2022-08-05T06:20:03.120Z,1005.47
2022-08-05T06:21:03.193Z,1005.45
2022-08-05T06:22:02.914Z,1005.40
2022-08-05T06:23:04.140Z,1005.33
2022-08-05T06:24:03.004Z,1005.32
2022-08-05T06:25:59.642Z,1005.35
2022-08-05T06:26:13.625Z,1005.36
2022-08-05T06:27:03.990Z,1005.37
2022-08-05T06:28:10.865Z,1005.37
2022-08-05T06:29:06.043Z,1005.34
2022-08-05T06:30:16.716Z,1005.34
2022-08-05T06:31:11.068Z,1005.34
2022-08-05T06:32:03.719Z,1005.28
2022-08-05T06:33:03.241Z,1005.32
2022-08-05T06:34:07.072Z,1005.41
2022-08-05T06:35:06.166Z,1005.43
2022-08-05T06:36:10.044Z,1005.46
2022-08-05T06:37:02.638Z,1005.48
2022-08-05T06:38:11.142Z,1005.49
2022-08-05T06:39:02.431Z,1005.52
2022-08-05T06:40:02.575Z,1005.57
2022-08-05T06:41:02.393Z,1005.58
2022-08-05T06:42:04.164Z,1005.57
2022-08-05T06:43:03.045Z,1005.54
2022-08-05T06:44:03.004Z,1005.53
2022-08-05T06:45:05.539Z,1005.53
2022-08-05T06:46:06.945Z,1005.57
2022-08-05T06:47:03.175Z,1005.60
2022-08-05T06:48:36.310Z,1005.63
2022-08-05T06:49:07.571Z,1005.62
2022-08-05T06:50:05.360Z,1005.64
2022-08-05T06:51:03.180Z,1005.60
2022-08-05T06:52:03.734Z,1005.59
2022-08-05T06:53:11.404Z,1005.62
2022-08-05T06:54:03.406Z,1005.63
2022-08-05T06:55:03.220Z,1005.67
2022-08-05T06:56:03.172Z,1005.68
2022-08-05T06:57:57.980Z,1005.65
2022-08-05T06:58:29.010Z,1005.64
2022-08-05T06:59:03.068Z,1005.63
2022-08-05T07:00:02.879Z,1005.70
2022-08-05T07:01:03.396Z,1005.72
2022-08-05T07:02:03.405Z,1005.75
2022-08-05T07:03:02.519Z,1005.79
2022-08-05T07:04:03.284Z,1005.78
2022-08-05T07:05:03.030Z,1005.78
2022-08-05T07:06:06.086Z,1005.81
2022-08-05T07:06:50.432Z,1005.80
2022-08-05T07:07:24.264Z,1005.79
2022-08-05T07:08:22.290Z,1005.78
2022-08-05T07:09:22.202Z,1005.76
2022-08-05T07:10:21.986Z,1005.72
2022-08-05T07:11:25.401Z,1005.73
2022-08-05T07:11:51.525Z,1005.73
2022-08-05T07:12:49.161Z,1005.74
2022-08-05T07:13:59.207Z,1005.81
2022-08-05T07:14:49.030Z,1005.85
2022-08-05T07:16:01.652Z,1005.91
2022-08-05T07:17:58.198Z,1005.88
2022-08-05T07:18:08.589Z,1005.90
2022-08-05T07:18:09.132Z,1005.93
2022-08-05T07:19:03.440Z,1005.90
2022-08-05T07:20:34.180Z,1005.91
2022-08-05T07:21:04.762Z,1005.89
2022-08-05T07:22:02.969Z,1005.94
2022-08-05T07:23:04.495Z,1005.96
2022-08-05T07:24:03.570Z,1005.97
2022-08-05T07:25:23.620Z,1005.99
2022-08-05T07:26:02.527Z,1006.00
2022-08-05T07:27:02.855Z,1006.00
2022-08-05T07:28:05.726Z,1006.00
2022-08-05T07:29:02.676Z,1006.04
2022-08-05T07:30:27.399Z,1006.05
2022-08-05T07:31:02.365Z,1006.07
2022-08-05T07:32:03.869Z,1006.14
2022-08-05T07:33:05.350Z,1006.09
2022-08-05T07:34:02.875Z,1006.10
2022-08-05T07:35:55.692Z,1006.11
2022-08-05T07:36:20.246Z,1006.12
2022-08-05T07:37:01.579Z,1006.09
2022-08-05T07:38:02.384Z,1006.16
2022-08-05T07:39:02.249Z,1006.14
2022-08-05T07:40:25.913Z,1006.19
2022-08-05T07:41:17.163Z,1006.19
2022-08-05T07:42:13.039Z,1006.16
2022-08-05T07:43:13.795Z,1006.20
2022-08-05T07:44:02.651Z,1006.19
2022-08-05T07:45:03.196Z,1006.22
2022-08-05T07:46:02.044Z,1006.24
2022-08-05T07:47:07.941Z,1006.27
2022-08-05T07:48:03.200Z,1006.27
2022-08-05T07:49:05.883Z,1006.30
2022-08-05T07:50:06.463Z,1006.32
2022-08-05T07:51:03.207Z,1006.30
2022-08-05T07:52:02.757Z,1006.32
2022-08-05T07:53:03.008Z,1006.35
2022-08-05T07:54:02.788Z,1006.38
2022-08-05T07:55:02.869Z,1006.39
2022-08-05T07:56:06.220Z,1006.39
2022-08-05T07:57:23.625Z,1006.46
2022-08-05T07:58:03.891Z,1006.48
2022-08-05T07:59:02.305Z,1006.49
2022-08-05T08:00:02.146Z,1006.45
2022-08-05T08:01:02.212Z,1006.44
2022-08-05T08:02:01.994Z,1006.49
2022-08-05T08:03:14.729Z,1006.50
2022-08-05T08:04:02.076Z,1006.49
2022-08-05T08:05:02.068Z,1006.49
2022-08-05T08:06:01.997Z,1006.55
2022-08-05T08:06:54.112Z,1006.59
2022-08-05T08:07:16.262Z,1006.59
2022-08-05T08:08:16.760Z,1006.62
2022-08-05T08:09:16.659Z,1006.66
2022-08-05T08:10:16.278Z,1006.68
2022-08-05T08:11:16.311Z,1006.71
2022-08-05T08:12:01.819Z,1006.71
2022-08-05T08:12:54.589Z,1006.75
2022-08-05T08:14:00.704Z,1006.73
2022-08-05T08:14:54.374Z,1006.78
2022-08-05T08:16:50.439Z,1006.80
2022-08-05T08:16:54.608Z,1006.78
2022-08-05T08:17:02.732Z,1006.76
2022-08-05T08:18:05.042Z,1006.80
2022-08-05T08:19:02.631Z,1006.76
2022-08-05T08:20:21.381Z,1006.78
2022-08-05T08:21:04.077Z,1006.77
2022-08-05T08:22:03.327Z,1006.78
2022-08-05T08:23:03.481Z,1006.82
2022-08-05T08:24:05.257Z,1006.81
2022-08-05T08:25:03.988Z,1006.84
2022-08-05T08:26:04.640Z,1006.85
2022-08-05T08:27:02.769Z,1006.87
2022-08-05T08:28:02.774Z,1006.87
2022-08-05T08:29:45.226Z,1006.89
2022-08-05T08:30:06.688Z,1006.89
2022-08-05T08:31:02.494Z,1006.93
2022-08-05T08:32:03.104Z,1006.98
2022-08-05T08:33:04.462Z,1007.02
2022-08-05T08:34:02.927Z,1006.96
2022-08-05T08:35:03.020Z,1006.99
2022-08-05T08:36:29.623Z,1006.96
2022-08-05T08:37:04.714Z,1006.98
2022-08-05T08:38:02.289Z,1007.02
2022-08-05T08:39:02.560Z,1007.01
2022-08-05T08:40:03.636Z,1007.01
2022-08-05T08:41:02.880Z,1007.02
2022-08-05T08:42:04.618Z,1007.03
2022-08-05T08:43:20.952Z,1007.04
2022-08-05T08:45:20.089Z,1007.05
2022-08-05T08:45:23.840Z,1007.01
2022-08-05T08:46:02.708Z,1007.00
2022-08-05T08:47:03.110Z,1006.97
2022-08-05T08:48:10.659Z,1006.96
2022-08-05T08:50:05.746Z,1007.01
2022-08-05T08:50:22.231Z,1007.01
2022-08-05T08:51:22.519Z,1006.99
2022-08-05T08:52:13.431Z,1006.99
2022-08-05T08:53:03.541Z,1007.01
2022-08-05T08:54:03.110Z,1006.98
2022-08-05T08:55:03.324Z,1006.92
2022-08-05T08:56:05.813Z,1006.93
2022-08-05T08:57:03.212Z,1006.90
2022-08-05T08:58:02.785Z,1006.87
2022-08-05T08:59:09.774Z,1006.93
2022-08-05T09:00:04.378Z,1006.88
2022-08-05T09:01:02.976Z,1006.92
2022-08-05T09:02:03.650Z,1006.98
2022-08-05T09:03:03.350Z,1006.93
2022-08-05T09:04:03.742Z,1006.97
2022-08-05T09:05:17.539Z,1006.93
2022-08-05T09:06:09.005Z,1006.93
2022-08-05T09:06:58.861Z,1006.89
2022-08-05T09:07:19.568Z,1006.91
2022-08-05T09:08:12.746Z,1006.91
2022-08-05T09:09:12.041Z,1006.92
2022-08-05T09:10:12.184Z,1006.91
2022-08-05T09:11:13.972Z,1006.88
2022-08-05T09:12:04.609Z,1006.89
2022-08-05T09:12:59.880Z,1006.88
2022-08-05T09:14:09.116Z,1006.86
2022-08-05T09:15:05.997Z,1006.84
2022-08-05T09:15:58.432Z,1006.88
2022-08-05T09:16:58.451Z,1006.85
2022-08-05T09:17:03.593Z,1006.87
2022-08-05T09:18:03.557Z,1006.91
2022-08-05T09:19:06.777Z,1006.87
2022-08-05T09:20:05.225Z,1006.82
2022-08-05T09:21:03.391Z,1006.82
2022-08-05T09:22:22.849Z,1006.78
2022-08-05T09:23:05.234Z,1006.76
2022-08-05T09:24:03.683Z,1006.74
2022-08-05T09:25:13.720Z,1006.72
2022-08-05T09:26:06.205Z,1006.74
2022-08-05T09:27:04.001Z,1006.77
2022-08-05T09:28:06.479Z,1006.75
2022-08-05T09:29:03.782Z,1006.84
2022-08-05T09:30:06.533Z,1006.85
2022-08-05T09:31:23.353Z,1006.84
2022-08-05T09:32:42.352Z,1006.86
2022-08-05T09:33:04.780Z,1006.88
2022-08-05T09:34:04.058Z,1006.87
2022-08-05T09:35:03.724Z,1006.88
2022-08-05T09:36:07.784Z,1006.97
2022-08-05T09:37:04.758Z,1006.96
2022-08-05T09:38:11.947Z,1006.92
2022-08-05T09:39:18.376Z,1006.95
2022-08-05T09:40:04.336Z,1006.98
2022-08-05T09:41:04.307Z,1007.03
2022-08-05T09:42:04.334Z,1007.04
2022-08-05T09:43:03.874Z,1007.14
2022-08-05T09:44:03.879Z,1007.11
2022-08-05T09:46:04.682Z,1007.10
2022-08-05T09:46:07.705Z,1007.13
2022-08-05T09:47:04.789Z,1007.11
2022-08-05T09:48:04.604Z,1007.12
2022-08-05T09:49:08.105Z,1007.16
2022-08-05T09:50:04.631Z,1007.12
2022-08-05T09:51:04.386Z,1007.10
2022-08-05T09:52:04.176Z,1007.08
2022-08-05T09:53:03.860Z,1007.12
2022-08-05T09:54:03.650Z,1007.11
2022-08-05T09:55:55.212Z,1007.15
2022-08-05T09:56:13.108Z,1007.13
2022-08-05T09:57:04.595Z,1007.13
2022-08-05T09:58:04.460Z,1007.20
2022-08-05T09:59:04.523Z,1007.22
2022-08-05T10:00:07.548Z,1007.18
2022-08-05T10:01:13.360Z,1007.18
2022-08-05T10:02:05.194Z,1007.19
2022-08-05T10:03:05.144Z,1007.17
2022-08-05T10:04:10.303Z,1007.19
2022-08-05T10:05:04.672Z,1007.19
2022-08-05T10:06:14.768Z,1007.18
2022-08-05T10:07:20.063Z,1007.19
2022-08-05T10:07:20.540Z,1007.18
2022-08-05T10:08:35.704Z,1007.18
2022-08-05T10:09:07.692Z,1007.23
2022-08-05T10:10:15.041Z,1007.22
2022-08-05T10:11:07.744Z,1007.29
2022-08-05T10:12:18.848Z,1007.27
2022-08-05T10:13:02.283Z,1007.29
2022-08-05T10:14:02.095Z,1007.32
2022-08-05T10:15:01.981Z,1007.32
2022-08-05T10:16:01.620Z,1007.37
2022-08-05T10:17:01.856Z,1007.46
2022-08-05T10:17:05.135Z,1007.43
2022-08-05T10:18:05.108Z,1007.49
2022-08-05T10:19:09.368Z,1007.54
2022-08-05T10:20:10.860Z,1007.56
2022-08-05T10:21:06.275Z,1007.53
2022-08-05T10:22:04.770Z,1007.56
2022-08-05T10:23:04.435Z,1007.58
2022-08-05T10:24:07.574Z,1007.62
2022-08-05T10:25:03.933Z,1007.67
2022-08-05T10:26:04.150Z,1007.72
2022-08-05T10:27:04.803Z,1007.77
2022-08-05T10:28:13.021Z,1007.75
2022-08-05T10:29:05.004Z,1007.80
2022-08-05T10:30:06.784Z,1007.82
2022-08-05T10:32:48.340Z,1007.85
2022-08-05T10:32:53.046Z,1007.85
2022-08-05T10:33:05.407Z,1007.87
2022-08-05T10:34:08.012Z,1007.89
2022-08-05T10:35:05.051Z,1007.94
2022-08-05T10:36:04.838Z,1008.01
2022-08-05T10:37:04.634Z,1008.02
2022-08-05T10:38:04.943Z,1008.01
2022-08-05T10:39:05.306Z,1008.01
2022-08-05T10:40:17.673Z,1008.04
2022-08-05T10:41:04.203Z,1008.06
2022-08-05T10:42:04.276Z,1008.05
2022-08-05T10:43:04.717Z,1008.10
2022-08-05T10:44:04.896Z,1008.10
2022-08-05T10:45:20.807Z,1008.10
2022-08-05T10:46:06.402Z,1008.10
2022-08-05T10:47:04.533Z,1008.13
2022-08-05T10:48:31.080Z,1008.17
2022-08-05T10:49:06.416Z,1008.15
2022-08-05T10:50:20.764Z,1008.24
2022-08-05T10:51:04.861Z,1008.21
2022-08-05T10:52:05.247Z,1008.21
2022-08-05T10:53:04.451Z,1008.25
2022-08-05T10:54:05.884Z,1008.22
2022-08-05T10:55:04.340Z,1008.25
2022-08-05T10:56:14.500Z,1008.23
2022-08-05T10:57:04.484Z,1008.23
2022-08-05T10:58:05.089Z,1008.23
2022-08-05T10:59:07.263Z,1008.25
2022-08-05T11:00:09.947Z,1008.27
2022-08-05T11:01:05.109Z,1008.30
2022-08-05T11:02:05.245Z,1008.32
2022-08-05T11:03:25.464Z,1008.35
2022-08-05T11:04:05.044Z,1008.39
2022-08-05T11:05:05.402Z,1008.38
2022-08-05T11:06:05.482Z,1008.42
2022-08-05T11:07:05.195Z,1008.46
2022-08-05T11:07:09.457Z,1008.45
2022-08-05T11:08:12.746Z,1008.41
2022-08-05T11:09:02.030Z,1008.47
2022-08-05T11:10:03.970Z,1008.47
2022-08-05T11:11:07.733Z,1008.54
2022-08-05T11:12:01.832Z,1008.50
2022-08-05T11:12:09.873Z,1008.47
2022-08-05T11:13:06.903Z,1008.51
2022-08-05T11:14:07.350Z,1008.58
2022-08-05T11:15:19.376Z,1008.56
2022-08-05T11:16:07.556Z,1008.64
2022-08-05T11:17:53.339Z,1008.63
2022-08-05T11:18:00.451Z,1008.63
2022-08-05T11:18:04.439Z,1008.65
2022-08-05T11:20:10.582Z,1008.69
2022-08-05T11:20:16.938Z,1008.67
2022-08-05T11:21:06.264Z,1008.74
2022-08-05T11:22:04.507Z,1008.73
2022-08-05T11:23:09.014Z,1008.80
2022-08-05T11:24:14.797Z,1008.85
2022-08-05T11:26:02.959Z,1008.89
2022-08-05T11:26:08.796Z,1008.86
2022-08-05T11:27:03.777Z,1008.92
2022-08-05T11:28:04.499Z,1008.98
2022-08-05T11:29:06.855Z,1008.91
2022-08-05T11:30:04.177Z,1008.95
2022-08-05T11:31:06.300Z,1008.98
2022-08-05T11:32:04.573Z,1009.00
2022-08-05T11:33:04.734Z,1009.06
2022-08-05T11:34:04.701Z,1009.10
2022-08-05T11:35:04.470Z,1009.14
2022-08-05T11:36:04.579Z,1009.16
2022-08-05T11:38:26.015Z,1009.21
2022-08-05T11:38:28.946Z,1009.16